Time;durP1;ratioP1;P1;durP2;ratioP2;P2;SDS_P1;SDS_P2;PMS_P1;PMS_P2;Temp;Humidity;BMP_temperature;BMP_pressure;BME280_temperature;BME280_humidity;BME280_pressure;Samples;Min_cycle;Max_cycle;Signal;HPM_P1;HPM_P2
2024/01/22 00:01:27;;;;;;;18.75;10.02;;;-0.60;99.90;;;;;;4919851;29;20108;-79
2024/01/22 00:03:53;;;;;;;17.17;9.95;;;-0.60;99.90;;;;;;4920633;29;20504;-80
2024/01/22 00:06:18;;;;;;;18.20;11.15;;;-0.50;99.90;;;;;;4900936;29;20028;-79
2024/01/22 00:08:44;;;;;;;15.18;9.90;;;-0.60;99.90;;;;;;4924257;29;20370;-80
2024/01/22 00:11:11;;;;;;;16.10;9.82;;;-0.50;99.90;;;;;;4903288;29;20064;-80
2024/01/22 00:13:37;;;;;;;15.43;9.68;;;-0.40;99.90;;;;;;4925306;29;20036;-79
2024/01/22 00:16:03;;;;;;;15.38;10.02;;;-0.50;99.90;;;;;;4902278;29;20036;-80
2024/01/22 00:18:28;;;;;;;15.60;9.40;;;-0.50;99.90;;;;;;4919656;29;20119;-80
2024/01/22 00:20:55;;;;;;;16.23;10.00;;;-0.50;99.90;;;;;;4908230;29;20027;-81
2024/01/22 00:23:20;;;;;;;16.30;9.98;;;-0.60;99.90;;;;;;4917058;29;20040;-80
2024/01/22 00:25:46;;;;;;;16.48;10.10;;;-0.70;99.90;;;;;;4910580;29;20160;-80
2024/01/22 00:28:12;;;;;;;15.40;9.95;;;-0.70;99.90;;;;;;4925264;29;20036;-80
2024/01/22 00:30:38;;;;;;;16.75;9.40;;;-0.70;99.90;;;;;;4919972;29;20040;-80
2024/01/22 00:33:04;;;;;;;15.30;9.55;;;-0.70;99.90;;;;;;4917319;29;20025;-80
2024/01/22 00:35:29;;;;;;;16.95;10.25;;;-0.80;99.90;;;;;;4924465;29;20048;-80
2024/01/22 00:37:55;;;;;;;16.25;9.75;;;-0.80;99.90;;;;;;4921352;29;20035;-80
2024/01/22 00:40:21;;;;;;;17.42;10.07;;;-0.90;99.90;;;;;;4924442;29;20099;-80
2024/01/22 00:42:46;;;;;;;18.15;10.32;;;-1.00;99.90;;;;;;4918168;29;20059;-80
2024/01/22 00:45:12;;;;;;;14.93;9.43;;;-1.00;99.90;;;;;;4888020;29;20575;-80
2024/01/22 00:47:38;;;;;;;14.88;10.07;;;-1.00;99.90;;;;;;4918633;29;20040;-80
2024/01/22 00:50:04;;;;;;;14.77;9.55;;;-1.10;99.90;;;;;;4927943;29;20083;-80
2024/01/22 00:52:31;;;;;;;16.67;9.70;;;-1.10;99.90;;;;;;4919418;29;20575;-80
2024/01/22 00:54:57;;;;;;;16.23;8.98;;;-1.10;99.90;;;;;;4916208;29;20036;-81
2024/01/22 00:57:22;;;;;;;14.85;8.70;;;-1.10;99.90;;;;;;4929869;29;20031;-80
2024/01/22 00:59:48;;;;;;;16.52;10.02;;;-1.20;99.90;;;;;;4921331;29;20039;-81
2024/01/22 01:02:14;;;;;;;14.55;9.40;;;-1.10;99.90;;;;;;4924718;29;20035;-79
2024/01/22 01:04:40;;;;;;;15.07;9.57;;;-1.20;99.90;;;;;;4923854;29;20032;-79
2024/01/22 01:07:06;;;;;;;13.57;8.65;;;-1.00;99.90;;;;;;4902248;29;20059;-79
2024/01/22 01:09:32;;;;;;;15.43;9.73;;;-1.00;99.90;;;;;;4918525;29;20055;-80
2024/01/22 01:11:58;;;;;;;15.25;9.82;;;-0.80;99.90;;;;;;4920671;29;20032;-80
2024/01/22 01:14:24;;;;;;;13.20;9.18;;;-0.80;99.90;;;;;;4914333;29;20533;-79
2024/01/22 01:16:50;;;;;;;14.43;9.57;;;-0.70;99.90;;;;;;4915762;29;20040;-80
2024/01/22 01:19:16;;;;;;;14.80;9.73;;;-0.70;99.90;;;;;;4918274;29;20122;-80
2024/01/22 01:21:42;;;;;;;14.23;8.93;;;-0.70;99.90;;;;;;4919654;29;20047;-80
2024/01/22 01:24:08;;;;;;;16.33;9.50;;;-0.60;99.90;;;;;;4916567;29;20512;-80
2024/01/22 01:26:41;;;;;;;13.65;8.82;;;-0.60;99.90;;;;;;4919323;29;20054;-80
2024/01/22 01:29:07;;;;;;;12.88;8.35;;;-0.50;99.90;;;;;;4917415;29;20115;-79
2024/01/22 01:31:33;;;;;;;15.13;9.73;;;-0.40;99.90;;;;;;4916880;29;20394;-80
2024/01/22 01:33:59;;;;;;;14.45;9.30;;;-0.40;99.90;;;;;;4924631;29;20071;-79
2024/01/22 01:36:25;;;;;;;19.27;9.95;;;-0.40;99.90;;;;;;4887820;29;20517;-79
2024/01/22 01:38:50;;;;;;;13.80;9.05;;;-0.40;99.90;;;;;;4920767;29;20067;-80
2024/01/22 01:41:16;;;;;;;14.45;8.82;;;-0.40;99.90;;;;;;4922716;29;20040;-80
2024/01/22 01:43:42;;;;;;;15.38;9.13;;;-0.40;99.90;;;;;;4922751;29;20100;-79
2024/01/22 01:46:07;;;;;;;12.05;8.23;;;-0.40;99.90;;;;;;4910363;29;20039;-80
2024/01/22 01:48:33;;;;;;;17.55;9.32;;;-0.40;99.90;;;;;;4921826;29;20076;-79
2024/01/22 01:51:00;;;;;;;14.95;8.90;;;-0.40;99.90;;;;;;4907928;29;20052;-80
2024/01/22 01:53:27;;;;;;;13.20;8.63;;;-0.40;99.90;;;;;;4918753;29;20036;-79
2024/01/22 01:55:54;;;;;;;13.30;8.57;;;-0.40;99.90;;;;;;4920668;29;20032;-79
2024/01/22 01:58:21;;;;;;;12.90;9.43;;;-0.40;99.90;;;;;;4919578;29;20039;-79
2024/01/22 02:00:49;;;;;;;15.32;9.38;;;-0.40;99.90;;;;;;4919513;29;20706;-79
2024/01/22 02:03:15;;;;;;;15.35;9.43;;;-0.50;99.90;;;;;;4918103;29;20118;-80
2024/01/22 02:05:41;;;;;;;14.30;9.18;;;-0.50;99.90;;;;;;4919086;29;20071;-79
2024/01/22 02:08:07;;;;;;;13.55;8.35;;;-0.60;99.90;;;;;;4920283;29;20639;-80
2024/01/22 02:10:32;;;;;;;12.65;8.27;;;-0.60;99.90;;;;;;4919287;29;20028;-80
2024/01/22 02:12:58;;;;;;;13.52;9.13;;;-0.70;99.90;;;;;;4903010;29;20027;-80
2024/01/22 02:15:24;;;;;;;12.73;8.25;;;-0.70;99.90;;;;;;4920663;29;20061;-80
2024/01/22 02:17:49;;;;;;;17.10;8.82;;;-0.70;99.90;;;;;;4920065;29;20032;-80
2024/01/22 02:20:15;;;;;;;12.40;8.18;;;-0.60;99.90;;;;;;4915070;29;20481;-80
2024/01/22 02:22:41;;;;;;;15.85;8.85;;;-0.60;99.90;;;;;;4919469;29;20024;-80
2024/01/22 02:25:07;;;;;;;12.70;8.07;;;-0.60;99.90;;;;;;4918822;29;20598;-79
2024/01/22 02:27:33;;;;;;;12.23;7.75;;;-0.50;99.90;;;;;;4901851;29;20043;-79
2024/01/22 02:29:58;;;;;;;12.88;7.97;;;-0.50;99.90;;;;;;4919445;29;20039;-79
2024/01/22 02:32:24;;;;;;;11.77;7.10;;;-0.50;99.90;;;;;;4899243;29;20105;-79
2024/01/22 02:34:50;;;;;;;11.80;7.57;;;-0.40;99.90;;;;;;4902780;29;20039;-81
2024/01/22 02:37:16;;;;;;;11.00;7.93;;;-0.40;99.90;;;;;;4909357;29;20039;-80
2024/01/22 02:39:42;;;;;;;12.93;8.57;;;-0.40;99.90;;;;;;4922420;29;20050;-80
2024/01/22 02:42:07;;;;;;;11.50;7.63;;;-0.40;99.90;;;;;;4905840;29;20043;-80
2024/01/22 02:44:35;;;;;;;11.27;7.90;;;-0.40;99.90;;;;;;4927575;29;20091;-80
2024/01/22 02:47:02;;;;;;;12.55;8.27;;;-0.30;99.90;;;;;;4930411;29;20063;-80
2024/01/22 02:49:28;;;;;;;13.27;8.70;;;-0.30;99.90;;;;;;4919591;29;20032;-79
2024/01/22 02:51:54;;;;;;;12.60;7.43;;;-0.30;99.90;;;;;;4919636;29;20540;-79
2024/01/22 02:54:19;;;;;;;11.45;8.50;;;-0.30;99.90;;;;;;4917575;29;20036;-79
2024/01/22 02:56:45;;;;;;;11.18;7.32;;;-0.40;99.90;;;;;;4905853;29;20131;-79
2024/01/22 02:59:11;;;;;;;14.57;7.72;;;-0.50;99.90;;;;;;4915259;29;20031;-80
2024/01/22 03:01:37;;;;;;;10.52;7.18;;;-0.60;99.90;;;;;;4918693;29;20493;-79
2024/01/22 03:04:03;;;;;;;12.15;7.65;;;-0.60;99.90;;;;;;4919185;29;20059;-79
2024/01/22 03:06:29;;;;;;;12.82;7.43;;;-0.60;99.90;;;;;;4921783;29;20028;-79
2024/01/22 03:08:55;;;;;;;12.73;8.20;;;-0.70;99.90;;;;;;4918463;29;20043;-79
2024/01/22 03:11:22;;;;;;;12.52;8.30;;;-0.80;99.90;;;;;;4916117;29;20035;-80
2024/01/22 03:13:47;;;;;;;11.95;7.57;;;-1.00;99.90;;;;;;4926150;29;20040;-79
2024/01/22 03:16:13;;;;;;;14.02;8.15;;;-1.10;99.90;;;;;;4922541;29;20056;-80
2024/01/22 03:18:39;;;;;;;11.57;7.25;;;-1.10;99.90;;;;;;4906655;29;20055;-81
2024/01/22 03:21:05;;;;;;;12.45;7.60;;;-1.10;99.90;;;;;;4926184;29;20430;-80
2024/01/22 03:23:30;;;;;;;12.10;7.63;;;-1.10;99.90;;;;;;4889885;29;20402;-80
2024/01/22 03:25:56;;;;;;;13.35;7.60;;;-1.20;99.90;;;;;;4927503;29;20035;-79
2024/01/22 03:28:22;;;;;;;15.57;7.80;;;-1.30;99.90;;;;;;4923097;29;20115;-80
2024/01/22 03:30:48;;;;;;;13.05;7.25;;;-1.20;99.90;;;;;;4913132;29;20047;-79
2024/01/22 03:33:15;;;;;;;11.25;7.60;;;-1.30;99.90;;;;;;4919725;29;20051;-81
2024/01/22 03:35:41;;;;;;;11.82;7.95;;;-1.30;99.90;;;;;;4924054;29;20060;-80
2024/01/22 03:38:06;;;;;;;14.95;7.72;;;-1.40;99.90;;;;;;4917119;29;20037;-79
2024/01/22 03:40:32;;;;;;;12.93;7.25;;;-1.50;99.90;;;;;;4918487;29;20043;-80
2024/01/22 03:42:58;;;;;;;12.77;8.18;;;-1.50;99.90;;;;;;4902447;29;20028;-81
2024/01/22 03:45:24;;;;;;;12.60;7.57;;;-1.50;99.90;;;;;;4926702;29;20382;-80
2024/01/22 03:47:49;;;;;;;11.20;7.15;;;-1.50;99.90;;;;;;4927010;29;20559;-78
2024/01/22 03:50:15;;;;;;;11.82;7.65;;;-1.50;99.90;;;;;;4925720;29;20091;-80
2024/01/22 03:52:41;;;;;;;11.20;7.60;;;-1.60;99.90;;;;;;4930610;29;20127;-79
2024/01/22 03:55:09;;;;;;;11.93;6.82;;;-1.60;99.90;;;;;;4903462;29;20036;-78
2024/01/22 03:57:34;;;;;;;13.75;8.23;;;-1.50;99.90;;;;;;4921657;29;20051;-80
2024/01/22 04:00:00;;;;;;;11.35;7.35;;;-1.40;99.90;;;;;;4901934;29;20482;-81
2024/01/22 04:02:26;;;;;;;11.52;7.88;;;-1.30;99.90;;;;;;4919873;29;20039;-80
2024/01/22 04:04:53;;;;;;;11.07;6.90;;;-1.40;99.90;;;;;;4914812;29;20032;-80
2024/01/22 04:07:19;;;;;;;11.52;7.55;;;-1.30;99.90;;;;;;4929247;29;20482;-78
2024/01/22 04:09:45;;;;;;;12.93;7.45;;;-1.30;99.90;;;;;;4919992;29;20036;-79
2024/01/22 04:12:11;;;;;;;13.77;7.40;;;-1.20;99.90;;;;;;4907430;29;20448;-79
2024/01/22 04:14:37;;;;;;;10.10;6.22;;;-1.10;99.90;;;;;;4925574;29;20095;-80
2024/01/22 04:17:04;;;;;;;11.40;7.15;;;-1.10;99.90;;;;;;4926332;29;20032;-78
2024/01/22 04:19:30;;;;;;;12.60;7.38;;;-1.10;99.90;;;;;;4922598;29;20054;-80
2024/01/22 04:21:55;;;;;;;14.57;8.00;;;-1.20;99.90;;;;;;4910006;29;20028;-79
2024/01/22 04:24:21;;;;;;;9.32;6.93;;;-1.30;99.90;;;;;;4928105;29;20075;-79
2024/01/22 04:26:47;;;;;;;11.70;7.05;;;-1.30;99.90;;;;;;4924160;29;20028;-80
2024/01/22 04:29:13;;;;;;;11.30;6.93;;;-1.20;99.90;;;;;;4905062;29;20043;-80
2024/01/22 04:31:38;;;;;;;10.73;6.57;;;-1.20;99.90;;;;;;4918147;29;20048;-80
2024/01/22 04:34:04;;;;;;;11.65;6.05;;;-1.10;99.90;;;;;;4896269;29;20032;-81
2024/01/22 04:36:30;;;;;;;10.60;7.20;;;-1.00;99.90;;;;;;4919278;29;20036;-80
2024/01/22 04:38:56;;;;;;;10.98;6.75;;;-1.00;99.90;;;;;;4898025;29;20091;-80
2024/01/22 04:41:22;;;;;;;9.90;6.53;;;-1.00;99.90;;;;;;4904982;29;20044;-80
2024/01/22 04:43:47;;;;;;;12.65;7.03;;;-0.90;99.90;;;;;;4924114;29;20034;-80
2024/01/22 04:46:13;;;;;;;9.80;6.53;;;-0.90;99.90;;;;;;4912311;29;20472;-81
2024/01/22 04:48:39;;;;;;;9.50;6.22;;;-0.90;99.90;;;;;;4922308;29;20529;-80
2024/01/22 04:51:05;;;;;;;10.00;6.25;;;-0.80;99.90;;;;;;4926703;29;20032;-80
2024/01/22 04:53:30;;;;;;;11.77;6.25;;;-0.80;99.90;;;;;;4903975;29;20508;-80
2024/01/22 04:55:56;;;;;;;10.32;6.72;;;-0.80;99.90;;;;;;4924255;29;20040;-80
2024/01/22 04:58:22;;;;;;;12.35;7.05;;;-0.80;99.90;;;;;;4913246;29;20054;-80
2024/01/22 05:00:47;;;;;;;10.13;6.22;;;-0.80;99.90;;;;;;4919906;29;20044;-80
2024/01/22 05:03:13;;;;;;;9.75;6.05;;;-0.80;99.90;;;;;;4872594;29;20095;-80
2024/01/22 05:05:39;;;;;;;11.05;6.90;;;-0.80;99.90;;;;;;4917816;29;20031;-78
2024/01/22 05:08:05;;;;;;;8.73;6.40;;;-0.80;99.90;;;;;;4899030;29;20032;-79
2024/01/22 05:10:31;;;;;;;11.85;6.65;;;-0.90;99.90;;;;;;4915960;29;20080;-79
2024/01/22 05:12:57;;;;;;;10.20;6.85;;;-1.00;99.90;;;;;;4917842;29;20522;-79
2024/01/22 05:15:23;;;;;;;11.00;6.60;;;-1.10;99.90;;;;;;4914684;29;20086;-79
2024/01/22 05:17:48;;;;;;;10.05;6.10;;;-1.10;99.90;;;;;;4906021;29;21500;-79
2024/01/22 05:20:14;;;;;;;9.57;6.68;;;-1.10;99.90;;;;;;4915365;29;20138;-77
2024/01/22 05:22:40;;;;;;;10.15;6.45;;;-1.10;99.90;;;;;;4920607;29;20123;-78
2024/01/22 05:25:08;;;;;;;12.60;6.57;;;-1.20;99.90;;;;;;4896988;29;20024;-80
2024/01/22 05:27:33;;;;;;;12.73;7.68;;;-1.20;99.90;;;;;;4914264;29;20159;-78
2024/01/22 05:29:59;;;;;;;12.50;6.35;;;-1.20;99.90;;;;;;4899120;29;20118;-77
2024/01/22 05:32:25;;;;;;;11.35;7.00;;;-1.20;99.90;;;;;;4905105;29;20040;-78
2024/01/22 05:34:51;;;;;;;13.35;7.82;;;-1.20;99.90;;;;;;4914213;29;20039;-78
2024/01/22 05:37:16;;;;;;;14.93;6.97;;;-1.20;99.90;;;;;;4914948;29;20036;-78
2024/01/22 05:39:42;;;;;;;9.23;6.10;;;-1.20;99.90;;;;;;4914153;29;20051;-77
2024/01/22 05:42:08;;;;;;;11.25;6.45;;;-1.20;99.90;;;;;;4898465;29;20028;-79
2024/01/22 05:44:34;;;;;;;8.43;5.45;;;-1.20;99.90;;;;;;4897375;29;20032;-79
2024/01/22 05:46:59;;;;;;;13.13;7.07;;;-1.20;99.90;;;;;;4902603;29;20115;-79
2024/01/22 05:49:26;;;;;;;12.07;6.32;;;-1.20;99.90;;;;;;4923327;29;20062;-78
2024/01/22 05:51:51;;;;;;;12.00;6.63;;;-1.20;99.90;;;;;;4918084;29;20043;-81
2024/01/22 05:54:17;;;;;;;11.00;6.00;;;-1.20;99.90;;;;;;4908498;29;20127;-81
2024/01/22 05:56:43;;;;;;;9.85;5.72;;;-1.20;99.90;;;;;;4921185;29;20037;-81
2024/01/22 05:59:09;;;;;;;8.18;5.22;;;-1.20;99.90;;;;;;4907438;29;20043;-81
2024/01/22 06:01:35;;;;;;;9.95;5.60;;;-1.10;99.90;;;;;;4901101;29;20051;-81
2024/01/22 06:04:04;;;;;;;8.93;4.57;;;-1.00;99.90;;;;;;4919635;29;20028;-81
2024/01/22 06:06:29;;;;;;;9.63;5.03;;;-0.90;99.90;;;;;;4919521;29;20111;-81
2024/01/22 06:08:56;;;;;;;7.60;4.22;;;-0.80;99.90;;;;;;4913996;29;20127;-80
2024/01/22 06:11:21;;;;;;;8.30;4.63;;;-0.60;99.90;;;;;;4903546;29;20134;-80
2024/01/22 06:13:48;;;;;;;10.57;4.88;;;-0.50;99.90;;;;;;4922883;29;20058;-80
2024/01/22 06:16:14;;;;;;;8.57;4.55;;;-0.40;99.90;;;;;;4922780;29;20114;-79
2024/01/22 06:18:41;;;;;;;10.48;3.90;;;-0.30;99.90;;;;;;4918495;29;20036;-80
2024/01/22 06:21:11;;;;;;;6.75;4.05;;;-0.30;99.90;;;;;;4893309;29;20075;-80
2024/01/22 06:23:37;;;;;;;7.10;4.57;;;-0.30;99.90;;;;;;4920261;29;20040;-80
2024/01/22 06:26:05;;;;;;;10.50;4.07;;;-0.20;99.90;;;;;;4929485;29;20107;-80
2024/01/22 06:28:31;;;;;;;6.78;4.15;;;-0.20;99.90;;;;;;4925834;29;20465;-81
2024/01/22 06:30:57;;;;;;;9.10;4.07;;;-0.20;99.90;;;;;;4922550;29;20192;-81
2024/01/22 06:33:23;;;;;;;8.70;4.22;;;-0.10;99.90;;;;;;4922129;29;20039;-80
2024/01/22 06:35:49;;;;;;;8.55;4.40;;;-0.10;99.90;;;;;;4909770;29;20036;-80
2024/01/22 06:38:19;;;;;;;7.28;4.32;;;-0.10;99.90;;;;;;4921842;29;20032;-79
2024/01/22 06:40:46;;;;;;;6.82;4.32;;;0.00;99.90;;;;;;4919181;29;20034;-78
2024/01/22 06:43:12;;;;;;;7.70;4.30;;;0.00;99.90;;;;;;4924497;29;20547;-79
2024/01/22 06:45:38;;;;;;;7.38;4.55;;;0.00;99.90;;;;;;4930158;29;20504;-80
2024/01/22 06:48:04;;;;;;;7.97;4.50;;;0.00;99.90;;;;;;4925197;29;20032;-78
2024/01/22 06:50:30;;;;;;;4.93;4.13;;;0.00;99.90;;;;;;4907796;29;20137;-79
2024/01/22 06:52:56;;;;;;;7.57;4.65;;;-0.10;99.90;;;;;;4924051;29;20033;-79
2024/01/22 06:55:23;;;;;;;6.55;4.32;;;-0.10;99.90;;;;;;4924664;29;20054;-79
2024/01/22 06:57:49;;;;;;;7.20;4.70;;;-0.10;99.90;;;;;;4922934;29;20033;-79
2024/01/22 07:00:16;;;;;;;8.38;4.40;;;-0.10;99.90;;;;;;4921262;29;20040;-79
2024/01/22 07:02:43;;;;;;;6.15;4.03;;;-0.10;99.90;;;;;;4907653;29;20043;-79
2024/01/22 07:05:10;;;;;;;6.75;4.47;;;0.00;99.90;;;;;;4914943;29;20051;-78
2024/01/22 07:07:37;;;;;;;6.85;4.50;;;0.00;99.90;;;;;;4907254;29;20032;-78
2024/01/22 07:10:08;;;;;;;7.15;4.55;;;0.00;99.90;;;;;;4923008;29;20028;-80
2024/01/22 07:12:40;;;;;;;9.30;5.47;;;0.00;99.90;;;;;;4906027;29;20477;-80
2024/01/22 07:15:09;;;;;;;12.13;5.35;;;0.00;99.90;;;;;;4901903;29;20100;-78
2024/01/22 07:17:34;;;;;;;11.68;5.70;;;0.00;99.90;;;;;;4916343;29;20032;-79
2024/01/22 07:20:00;;;;;;;10.50;6.10;;;-0.10;99.90;;;;;;4918919;29;20040;-79
2024/01/22 07:22:26;;;;;;;8.10;4.78;;;-0.10;99.90;;;;;;4919929;29;20596;-79
2024/01/22 07:24:51;;;;;;;8.52;5.32;;;-0.10;99.90;;;;;;4912981;29;20037;-79
2024/01/22 07:27:18;;;;;;;8.25;4.50;;;-0.10;99.90;;;;;;4906482;29;20541;-79
2024/01/22 07:29:43;;;;;;;8.13;4.80;;;0.00;99.90;;;;;;4921536;29;20036;-79
2024/01/22 07:32:09;;;;;;;8.23;4.70;;;0.00;99.90;;;;;;4921517;29;20397;-79
2024/01/22 07:34:35;;;;;;;7.30;4.43;;;0.10;99.90;;;;;;4919687;29;20036;-79
2024/01/22 07:37:00;;;;;;;7.20;4.60;;;0.10;99.90;;;;;;4906648;29;20449;-78
2024/01/22 07:39:26;;;;;;;8.77;5.43;;;0.10;99.90;;;;;;4903535;29;20036;-80
2024/01/22 07:41:52;;;;;;;9.77;5.55;;;0.20;99.90;;;;;;4917558;29;20095;-79
2024/01/22 07:44:18;;;;;;;8.18;5.05;;;0.20;99.90;;;;;;4919189;29;20405;-79
2024/01/22 07:46:44;;;;;;;7.45;5.30;;;0.20;99.90;;;;;;4923542;29;20091;-79
2024/01/22 07:49:10;;;;;;;8.15;5.22;;;0.20;99.90;;;;;;4904377;29;20039;-79
2024/01/22 07:51:36;;;;;;;6.60;4.72;;;0.30;99.90;;;;;;4920621;29;20032;-79
2024/01/22 07:54:01;;;;;;;7.65;5.45;;;0.30;99.90;;;;;;4903844;29;20454;-79
2024/01/22 07:56:28;;;;;;;9.20;4.90;;;0.30;99.90;;;;;;4925287;29;20036;-79
2024/01/22 07:58:54;;;;;;;8.82;5.05;;;0.40;99.90;;;;;;4904608;29;20488;-79
2024/01/22 08:01:20;;;;;;;9.13;4.65;;;0.40;99.90;;;;;;4921907;29;20028;-79
2024/01/22 08:03:45;;;;;;;9.88;4.90;;;0.40;99.90;;;;;;4915090;29;20035;-79
2024/01/22 08:06:11;;;;;;;9.82;5.32;;;0.50;99.90;;;;;;4915546;29;20028;-80
2024/01/22 08:08:40;;;;;;;7.63;5.00;;;0.40;99.90;;;;;;4899930;29;20123;-78
2024/01/22 08:11:05;;;;;;;6.78;4.65;;;0.50;99.90;;;;;;4915108;29;20625;-78
2024/01/22 08:13:31;;;;;;;8.25;4.90;;;0.50;99.90;;;;;;4917842;29;20052;-79
2024/01/22 08:15:57;;;;;;;7.10;4.15;;;0.50;99.90;;;;;;4918645;29;20028;-78
2024/01/22 08:18:22;;;;;;;5.72;4.40;;;0.50;99.90;;;;;;4915894;29;20044;-78
2024/01/22 08:20:48;;;;;;;8.98;4.78;;;0.50;99.90;;;;;;4917412;29;20032;-79
2024/01/22 08:23:14;;;;;;;6.88;4.55;;;0.50;99.90;;;;;;4917331;29;20036;-78
2024/01/22 08:25:40;;;;;;;9.05;4.50;;;0.50;99.90;;;;;;4918056;29;20085;-78
2024/01/22 08:28:06;;;;;;;7.85;4.70;;;0.50;99.90;;;;;;4918361;29;20041;-78
2024/01/22 08:30:32;;;;;;;6.70;4.28;;;0.50;99.90;;;;;;4904069;29;20032;-78
2024/01/22 08:32:58;;;;;;;6.55;4.35;;;0.50;99.90;;;;;;4911122;29;20159;-79
2024/01/22 08:35:23;;;;;;;7.35;4.68;;;0.50;99.90;;;;;;4915701;29;20104;-79
2024/01/22 08:37:52;;;;;;;7.85;4.72;;;0.60;99.90;;;;;;4903083;29;20188;-79
2024/01/22 08:40:23;;;;;;;5.43;3.83;;;0.60;99.90;;;;;;4917909;29;20028;-79
2024/01/22 08:42:53;;;;;;;6.25;4.13;;;0.60;99.90;;;;;;4914875;29;20039;-79
2024/01/22 08:45:21;;;;;;;7.82;4.07;;;0.70;99.90;;;;;;4914503;29;20024;-78
2024/01/22 08:47:51;;;;;;;7.20;4.90;;;0.70;99.90;;;;;;4899960;29;20032;-78
2024/01/22 08:50:19;;;;;;;9.00;4.50;;;0.80;99.90;;;;;;4916552;29;20044;-80
2024/01/22 08:52:48;;;;;;;5.32;3.72;;;0.80;99.90;;;;;;4916095;29;20036;-78
2024/01/22 08:55:15;;;;;;;8.38;4.35;;;0.80;99.90;;;;;;4908170;29;20036;-79
2024/01/22 08:57:41;;;;;;;9.80;5.10;;;0.80;99.90;;;;;;4910667;29;20629;-79
2024/01/22 09:00:10;;;;;;;6.40;4.32;;;0.80;99.90;;;;;;4912715;29;20093;-78
2024/01/22 09:02:39;;;;;;;5.78;3.92;;;0.80;99.90;;;;;;4909124;29;20489;-78
2024/01/22 09:05:10;;;;;;;8.10;4.50;;;0.80;99.90;;;;;;4897770;29;20024;-78
2024/01/22 09:07:36;;;;;;;6.03;4.03;;;0.80;99.90;;;;;;4907788;29;20028;-79
2024/01/22 09:10:06;;;;;;;8.30;4.38;;;0.90;99.90;;;;;;4906895;29;20036;-79
2024/01/22 09:12:33;;;;;;;4.90;3.78;;;0.90;99.90;;;;;;4918937;29;20137;-79
2024/01/22 09:14:59;;;;;;;6.65;4.40;;;0.90;99.90;;;;;;4912995;29;20032;-77
2024/01/22 09:17:25;;;;;;;6.90;4.93;;;0.90;99.90;;;;;;4922893;29;20050;-77
2024/01/22 09:19:51;;;;;;;6.65;4.32;;;1.00;99.90;;;;;;4908081;29;20037;-78
2024/01/22 09:22:19;;;;;;;7.88;4.90;;;1.00;99.90;;;;;;4929716;29;20040;-78
2024/01/22 09:24:45;;;;;;;8.30;6.05;;;1.10;99.90;;;;;;4916738;29;20477;-79
2024/01/22 09:27:11;;;;;;;12.52;5.72;;;1.10;99.90;;;;;;4922210;29;20393;-79
2024/01/22 09:29:37;;;;;;;7.65;4.30;;;1.20;99.90;;;;;;4919292;29;20084;-79
2024/01/22 09:32:03;;;;;;;4.97;2.90;;;1.30;99.90;;;;;;4920042;29;20067;-80
2024/01/22 09:34:29;;;;;;;3.63;1.80;;;1.50;99.90;;;;;;4919345;29;20075;-80
2024/01/22 09:36:54;;;;;;;1.88;1.67;;;1.60;99.90;;;;;;4919069;29;20416;-81
2024/01/22 09:39:22;;;;;;;2.72;1.98;;;1.80;99.90;;;;;;4917890;29;20039;-79
2024/01/22 09:41:50;;;;;;;2.40;1.92;;;2.10;99.90;;;;;;4922083;29;20397;-78
2024/01/22 09:44:16;;;;;;;3.08;1.95;;;2.30;99.90;;;;;;4915050;29;20112;-79
2024/01/22 09:46:42;;;;;;;2.70;1.75;;;2.50;99.90;;;;;;4919903;29;20055;-80
2024/01/22 09:49:08;;;;;;;2.53;1.80;;;2.70;99.90;;;;;;4924273;29;20499;-81
2024/01/22 09:51:35;;;;;;;6.15;1.83;;;2.80;99.90;;;;;;4924399;29;20048;-81
2024/01/22 09:54:07;;;;;;;3.05;1.67;;;3.00;99.90;;;;;;4918409;29;20028;-79
2024/01/22 09:56:36;;;;;;;2.40;1.58;;;3.10;99.90;;;;;;4919136;29;20485;-81
2024/01/22 09:59:20;;;;;;;4.30;1.88;;;3.20;99.90;;;;;;4918418;29;20032;-78
2024/01/22 10:02:05;;;;;;;2.38;1.30;;;3.20;99.90;;;;;;4926197;29;21478;-79
2024/01/22 10:04:31;;;;;;;3.63;1.52;;;3.30;99.90;;;;;;4908766;29;20036;-80
2024/01/22 10:07:00;;;;;;;4.05;1.70;;;3.30;99.90;;;;;;4895564;29;20176;-79
2024/01/22 10:09:25;;;;;;;2.10;1.67;;;3.30;99.90;;;;;;4924416;29;20512;-81
2024/01/22 10:11:51;;;;;;;2.13;1.48;;;3.30;99.90;;;;;;4910354;29;20044;-79
2024/01/22 10:14:30;;;;;;;3.13;1.35;;;3.30;99.90;;;;;;4915814;29;20068;-78
2024/01/22 10:16:55;;;;;;;2.08;1.88;;;3.30;99.90;;;;;;4916791;29;20033;-78
2024/01/22 10:19:26;;;;;;;3.97;1.70;;;3.30;99.90;;;;;;4901138;29;20453;-78
2024/01/22 10:22:00;;;;;;;1.60;1.50;;;3.40;99.90;;;;;;4927871;29;20394;-77
2024/01/22 10:24:26;;;;;;;4.57;1.90;;;3.40;99.90;;;;;;4936835;29;20083;-78
2024/01/22 10:26:51;;;;;;;2.72;1.60;;;3.50;99.90;;;;;;4934243;29;20518;-78
2024/01/22 10:29:20;;;;;;;3.78;1.70;;;3.60;99.90;;;;;;4928413;29;20032;-78
2024/01/22 10:32:04;;;;;;;5.85;1.60;;;3.70;99.90;;;;;;4919547;29;20040;-79
2024/01/22 10:34:51;;;;;;;2.15;1.67;;;3.80;99.90;;;;;;4917432;29;20500;-78
2024/01/22 10:37:17;;;;;;;1.83;1.40;;;3.80;99.90;;;;;;4902726;29;20048;-80
2024/01/22 10:39:44;;;;;;;3.03;1.40;;;3.90;99.90;;;;;;4925453;29;20036;-79
2024/01/22 10:42:14;;;;;;;4.65;1.27;;;3.90;99.90;;;;;;4923091;29;20032;-78
2024/01/22 10:44:44;;;;;;;1.77;1.40;;;3.90;99.90;;;;;;4907936;29;20497;-80
2024/01/22 10:47:11;;;;;;;2.38;0.95;;;3.90;99.90;;;;;;4920776;29;20032;-80
2024/01/22 10:49:37;;;;;;;1.98;1.35;;;3.90;99.90;;;;;;4917649;29;20115;-78
2024/01/22 10:52:04;;;;;;;2.08;1.20;;;4.00;99.90;;;;;;4903594;29;20091;-78
2024/01/22 10:54:31;;;;;;;1.27;0.98;;;3.90;99.90;;;;;;4923692;29;20067;-79
2024/01/22 10:57:09;;;;;;;5.25;1.15;;;3.90;99.90;;;;;;4927912;29;20035;-80
2024/01/22 10:59:37;;;;;;;0.93;0.70;;;3.90;99.90;;;;;;4929424;29;20032;-79
2024/01/22 11:02:06;;;;;;;1.13;0.88;;;4.00;99.90;;;;;;4916154;29;20041;-79
2024/01/22 11:04:45;;;;;;;1.95;1.05;;;4.00;99.90;;;;;;4920355;29;20079;-79
2024/01/22 11:07:12;;;;;;;3.35;1.13;;;4.00;99.90;;;;;;4916166;29;20127;-79
2024/01/22 11:09:39;;;;;;;2.50;1.10;;;4.00;99.90;;;;;;4927445;29;20028;-79
2024/01/22 11:12:09;;;;;;;3.22;0.88;;;4.00;99.90;;;;;;4922525;29;20046;-78
2024/01/22 11:14:39;;;;;;;1.70;1.08;;;4.10;99.90;;;;;;4919791;29;20029;-79
2024/01/22 11:17:06;;;;;;;1.67;1.23;;;4.10;99.90;;;;;;4925841;29;20027;-78
2024/01/22 11:19:33;;;;;;;1.52;1.10;;;4.20;99.90;;;;;;4909893;29;20043;-78
2024/01/22 11:22:00;;;;;;;1.88;1.23;;;4.20;99.90;;;;;;4931589;29;20067;-79
2024/01/22 11:24:26;;;;;;;3.83;1.15;;;4.20;99.90;;;;;;4904577;29;20087;-79
2024/01/22 11:26:51;;;;;;;2.88;1.20;;;4.30;99.90;;;;;;4920389;29;20036;-79
2024/01/22 11:29:28;;;;;;;2.38;1.48;;;4.30;99.90;;;;;;4912028;29;20058;-78
2024/01/22 11:31:55;;;;;;;1.52;1.13;;;4.40;99.90;;;;;;4916814;29;20040;-80
2024/01/22 11:34:39;;;;;;;1.33;1.13;;;4.40;99.90;;;;;;4932791;29;20100;-79
2024/01/22 11:37:06;;;;;;;1.33;0.73;;;4.50;99.90;;;;;;4929818;29;20044;-80
2024/01/22 11:39:43;;;;;;;1.60;1.17;;;4.60;99.90;;;;;;4933795;29;20039;-79
2024/01/22 11:42:20;;;;;;;4.03;1.15;;;4.60;99.90;;;;;;4917580;29;20407;-79
2024/01/22 11:44:50;;;;;;;2.50;1.10;;;4.80;99.90;;;;;;4895657;29;20031;-79
2024/01/22 11:47:18;;;;;;;3.03;1.30;;;4.90;99.90;;;;;;4928781;29;20039;-80
2024/01/22 11:49:44;;;;;;;1.30;0.95;;;5.10;99.90;;;;;;4930875;29;20096;-79
2024/01/22 11:52:18;;;;;;;2.60;1.30;;;5.20;99.90;;;;;;4916396;29;20076;-79
2024/01/22 11:54:59;;;;;;;3.17;1.40;;;5.20;99.90;;;;;;4932162;29;20051;-79
2024/01/22 11:57:26;;;;;;;1.58;0.80;;;5.20;99.90;;;;;;4931776;29;20083;-80
2024/01/22 12:00:16;;;;;;;1.33;0.80;;;5.20;99.90;;;;;;4933340;29;20032;-80
2024/01/22 12:02:45;;;;;;;1.23;0.90;;;5.20;99.90;;;;;;4928677;29;20035;-79
2024/01/22 12:05:17;;;;;;;2.85;0.98;;;5.10;99.90;;;;;;4937870;29;20024;-79
2024/01/22 12:07:44;;;;;;;0.80;0.70;;;5.00;99.90;;;;;;4933066;29;20042;-79
2024/01/22 12:10:22;;;;;;;1.35;0.88;;;5.00;99.90;;;;;;4932538;29;20116;-79
2024/01/22 12:13:08;;;;;;;1.10;0.95;;;5.00;99.90;;;;;;4922649;29;20042;-80
2024/01/22 12:15:33;;;;;;;1.67;1.00;;;5.00;99.90;;;;;;4908217;29;20075;-79
2024/01/22 12:18:02;;;;;;;1.83;1.10;;;5.00;99.90;;;;;;4926216;29;20042;-78
2024/01/22 12:20:30;;;;;;;1.30;1.17;;;5.00;99.90;;;;;;4926610;29;20036;-79
2024/01/22 12:23:00;;;;;;;3.58;1.00;;;4.90;99.90;;;;;;4927849;29;20032;-79
2024/01/22 12:25:38;;;;;;;1.65;1.10;;;4.90;99.90;;;;;;4924593;29;20483;-80
2024/01/22 12:28:09;;;;;;;4.07;1.20;;;4.90;99.90;;;;;;4933428;29;20095;-82
2024/01/22 12:30:35;;;;;;;4.30;1.27;;;4.90;99.90;;;;;;4931543;29;20050;-80
2024/01/22 12:33:02;;;;;;;1.60;1.17;;;4.90;99.90;;;;;;4931392;29;20429;-81
2024/01/22 12:35:28;;;;;;;1.77;1.13;;;4.90;99.90;;;;;;4928447;29;20024;-81
2024/01/22 12:37:54;;;;;;;2.78;0.90;;;4.90;99.90;;;;;;4880554;29;20036;-81
2024/01/22 12:40:20;;;;;;;4.32;1.02;;;4.90;99.90;;;;;;4925612;29;20286;-81
2024/01/22 12:42:49;;;;;;;0.95;0.85;;;4.90;99.90;;;;;;4930544;29;20032;-81
2024/01/22 12:45:19;;;;;;;1.67;1.23;;;5.00;99.90;;;;;;4929834;29;20060;-81